Delray Beach, FL (33448)

7:38 PM EST on December 02, 2016 (GMT -0500)
Delray Beach | | Change Station

Elev 30 ft 26.47 °N, 80.09 °W | Updated 36 seconds ago

Overcast
Overcast
76.5 °F
Feels Like 78 °F
N
5.3
Wind Variable Wind from West
Gusts 6.8 mph

Today
High -- | Low -- °F
--% Chance of Precip.
Yesterday
High -- | Low -- °F
Precip. -- in
Pressure 30.06 in
Visibility 8.0 miles
Clouds Few 1900 ft
Scattered Clouds 2400 ft
Overcast 6000 ft
Heat Index 78 °F
Dew Point 71 °F
Humidity 82%
Rainfall 0.00 in
Snow Depth Not available.
6:52 AM 5:27 PM
Waxing Crescent, 11% visible
METAR KPMP 022353Z AUTO 03011KT 8SM FEW019 SCT024 OVC060 25/21 A3006 RMK AO2 RAE2254 SLP179 P0000 60000 T02500211 10278 20250 53008
Pressure 30.06 in
Visibility 8.0 miles
Clouds Few 1900 ft
Scattered Clouds 2400 ft
Overcast 6000 ft
Heat Index 78 °F
Dew Point 71 °F
Humidity 82%
Rainfall 0.00 in
Snow Depth Not available.
6:52 AM 5:27 PM
Waxing Crescent, 11% visible
METAR KPMP 022353Z AUTO 03011KT 8SM FEW019 SCT024 OVC060 25/21 A3006 RMK AO2 RAE2254 SLP179 P0000 60000 T02500211 10278 20250 53008

10-Day Weather Forecast

Almanac

Astronomy

Dec. 02, 2016 Rise Set
Actual Time
Civil Twilight
Nautical Twilight
Astronomical Twilight
Moon
Length of Visible Light
Length of Day
Tomorrow will be .
, % of the Moon is Illuminated

Today's Extremes

State Highs State Lows

Community

WunderPhotos

Upload Photos

1,955,381 photos uploaded!

WunderBlog® & News

Nearby

Air Quality

  Air Quality AQ Index Pollutant
Not available.

Snow Depth

Station Depth Elevation

Earthquake Activity

City Distance Mag. Time & Date
Minimum magnitude displayed is 2.5.

Coastal Water Temperatures

Place Temperature

Stations

Nearby Weather Stations

Station Location Temp. Windchill Dew Point Humidity Wind Precip. Elev Updated Type
                   

Watches & Warnings

There are currently no watches in effect.